Terminal Aerodrome Forecast
Issued by NWS

Home | Current Version | Previous Version | Text Only | Print | Product List | Glossary Off
Versions: 1 2 3 4 5 6 7 8 9 10 11 12 13 14 15 16 17 18 19 20 21 22

822
FTUS43 KTOP 270520
TAFFOE
TAF
KFOE 270520Z 2706/2806 04007KT 3SM SHRA BR SCT012 OVC040
     FM270800 02009KT 6SM -RA BR OVC008
      TEMPO 2709/2712 4SM RA SCT008 OVC011
     FM271600 36009KT P6SM OVC013
     FM272200 01007KT P6SM BKN040=

USA.gov is the U.S. government's official web portal to all federal, state and local government web resources and services.